createdAt,value
2022-12-01T00:01:19.023Z,73.69
2022-12-01T00:03:45.850Z,73.54
2022-12-01T00:06:17.798Z,72.93
2022-12-01T00:09:05.600Z,73.28
2022-12-01T00:11:33.610Z,73.58
2022-12-01T00:14:01.278Z,73.44
2022-12-01T00:16:28.245Z,73.33
2022-12-01T00:18:55.113Z,73.15
2022-12-01T00:21:23.823Z,72.69
2022-12-01T00:23:52.632Z,72.16
2022-12-01T00:26:20.338Z,71.92
2022-12-01T00:28:51.447Z,71.32
2022-12-01T00:31:18.393Z,72.41
2022-12-01T00:33:45.189Z,72.59
2022-12-01T00:36:12.043Z,72.00
2022-12-01T00:38:39.098Z,71.53
2022-12-01T00:41:06.020Z,71.35
2022-12-01T00:43:32.770Z,70.68
2022-12-01T00:45:59.965Z,71.32
2022-12-01T00:48:27.144Z,71.56
2022-12-01T00:50:54.739Z,71.62
2022-12-01T00:53:22.598Z,71.53
2022-12-01T00:55:49.335Z,71.40
2022-12-01T00:58:16.084Z,71.12
2022-12-01T01:00:43.089Z,71.50
2022-12-01T01:03:10.471Z,71.97
2022-12-01T01:05:38.330Z,72.18
2022-12-01T01:08:09.960Z,71.59
2022-12-01T01:10:44.961Z,71.31
2022-12-01T01:13:12.641Z,71.70
2022-12-01T01:15:39.344Z,72.21
2022-12-01T01:18:06.302Z,72.89
2022-12-01T01:20:33.499Z,72.84
2022-12-01T01:23:00.221Z,72.58
2022-12-01T01:25:27.056Z,71.72
2022-12-01T01:27:53.774Z,71.17
2022-12-01T01:30:21.182Z,72.13
2022-12-01T01:32:47.960Z,72.52
2022-12-01T01:35:14.734Z,72.58
2022-12-01T01:37:41.531Z,72.19
2022-12-01T01:40:08.603Z,71.64
2022-12-01T01:42:35.363Z,71.71
2022-12-01T01:45:02.228Z,71.54
2022-12-01T01:47:36.743Z,70.40
2022-12-01T01:50:09.150Z,70.36
2022-12-01T01:52:39.039Z,70.84
2022-12-01T01:55:06.143Z,70.84
2022-12-01T01:57:34.159Z,71.21
2022-12-01T02:00:20.731Z,70.86
2022-12-01T02:02:49.108Z,71.05
2022-12-01T02:05:25.911Z,71.11
2022-12-01T02:07:54.106Z,72.02
2022-12-01T02:10:24.102Z,71.49
2022-12-01T02:13:03.814Z,71.27
2022-12-01T02:15:56.813Z,70.76
2022-12-01T02:19:00.079Z,70.93
2022-12-01T02:21:52.544Z,70.95
2022-12-01T02:24:37.794Z,71.23
2022-12-01T02:27:08.448Z,71.28
2022-12-01T02:29:53.419Z,70.85
2022-12-01T02:32:43.393Z,70.66
2022-12-01T02:35:49.918Z,69.96
2022-12-01T02:38:30.809Z,70.50
2022-12-01T02:41:08.646Z,70.13
2022-12-01T02:44:16.206Z,71.05
2022-12-01T02:46:51.682Z,70.75
2022-12-01T02:49:21.736Z,71.03
2022-12-01T02:51:48.780Z,71.16
2022-12-01T02:54:15.766Z,70.63
2022-12-01T02:56:45.730Z,70.80
2022-12-01T02:59:14.129Z,70.75
2022-12-01T03:02:02.462Z,70.92
2022-12-01T03:04:51.023Z,70.67
2022-12-01T03:07:44.083Z,70.07
2022-12-01T03:10:24.289Z,69.92
2022-12-01T03:13:18.855Z,69.56
2022-12-01T03:16:06.575Z,69.81
2022-12-01T03:18:36.143Z,70.25
2022-12-01T03:21:11.898Z,69.71
2022-12-01T03:23:47.104Z,69.86
2022-12-01T03:26:16.919Z,70.12
2022-12-01T03:29:05.948Z,70.25
2022-12-01T03:31:40.704Z,70.42
2022-12-01T03:34:15.023Z,70.75
2022-12-01T03:36:51.156Z,70.41
2022-12-01T03:39:23.302Z,70.30
2022-12-01T03:41:59.399Z,70.86
2022-12-01T03:44:33.079Z,70.54
2022-12-01T03:47:04.321Z,70.69
2022-12-01T03:49:31.405Z,70.82
2022-12-01T03:52:07.737Z,70.88
2022-12-01T03:54:55.067Z,70.76
2022-12-01T03:57:27.401Z,70.68
2022-12-01T03:59:54.493Z,71.11
2022-12-01T04:02:21.531Z,70.63
2022-12-01T04:04:48.282Z,70.48
2022-12-01T04:07:15.023Z,70.88
2022-12-01T04:09:41.904Z,71.10
2022-12-01T04:12:30.560Z,70.87
2022-12-01T04:14:57.904Z,70.63
2022-12-01T04:17:25.272Z,70.82
2022-12-01T04:19:52.388Z,71.10
2022-12-01T04:22:19.161Z,71.11
2022-12-01T04:24:45.931Z,70.84
2022-12-01T04:27:13.139Z,70.79
2022-12-01T04:29:39.894Z,70.93
2022-12-01T04:32:06.721Z,70.87
2022-12-01T04:34:33.719Z,70.92
2022-12-01T04:37:00.604Z,70.44
2022-12-01T04:39:27.358Z,70.56
2022-12-01T04:41:54.045Z,70.76
2022-12-01T04:44:23.944Z,69.59
2022-12-01T04:46:53.927Z,69.94
2022-12-01T04:49:21.583Z,70.34
2022-12-01T04:51:49.029Z,70.74
2022-12-01T04:54:15.970Z,69.96
2022-12-01T04:56:42.748Z,70.31
2022-12-01T04:59:09.541Z,70.36
2022-12-01T05:01:36.471Z,70.51
2022-12-01T05:04:03.521Z,70.98
2022-12-01T05:06:30.608Z,71.61
2022-12-01T05:08:59.625Z,71.09
2022-12-01T05:11:27.477Z,71.25
2022-12-01T05:13:54.324Z,71.63
2022-12-01T05:16:23.836Z,70.87
2022-12-01T05:19:16.616Z,70.83
2022-12-01T05:21:44.824Z,71.34
2022-12-01T05:24:12.379Z,71.06
2022-12-01T05:26:39.987Z,71.31
2022-12-01T05:29:06.772Z,71.64
2022-12-01T05:31:33.596Z,72.15
2022-12-01T05:34:03.589Z,72.07
2022-12-01T05:36:30.337Z,71.88
2022-12-01T05:38:57.147Z,72.02
2022-12-01T05:41:24.291Z,71.86
2022-12-01T05:43:51.217Z,71.67
2022-12-01T05:46:18.197Z,71.44
2022-12-01T05:48:45.057Z,71.85
2022-12-01T05:51:13.671Z,71.89
2022-12-01T05:53:40.379Z,72.03
2022-12-01T05:56:07.733Z,72.12
2022-12-01T05:58:35.108Z,72.13
2022-12-01T06:01:02.071Z,72.16
2022-12-01T06:03:28.898Z,71.85
2022-12-01T06:05:55.780Z,71.89
2022-12-01T06:08:22.575Z,72.05
2022-12-01T06:10:49.415Z,71.69
2022-12-01T06:13:18.407Z,71.39
2022-12-01T06:15:45.185Z,71.72
2022-12-01T06:18:11.963Z,72.32
2022-12-01T06:20:38.828Z,71.96
2022-12-01T06:23:05.678Z,72.26
2022-12-01T06:25:32.379Z,72.14
2022-12-01T06:27:59.312Z,72.13
2022-12-01T06:30:26.515Z,72.41
2022-12-01T06:32:53.243Z,72.25
2022-12-01T06:35:20.412Z,72.11
2022-12-01T06:37:47.117Z,72.57
2022-12-01T06:40:14.058Z,72.07
2022-12-01T06:42:40.729Z,72.15
2022-12-01T06:45:07.933Z,72.07
2022-12-01T06:47:34.948Z,72.07
2022-12-01T06:50:05.745Z,72.47
2022-12-01T06:52:32.418Z,72.65
2022-12-01T06:55:00.212Z,72.77
2022-12-01T06:57:27.176Z,72.88
2022-12-01T06:59:54.165Z,72.78
2022-12-01T07:02:21.240Z,72.43
2022-12-01T07:04:47.988Z,72.91
2022-12-01T07:07:14.866Z,72.38
2022-12-01T07:09:41.794Z,72.54
2022-12-01T07:12:08.640Z,72.47
2022-12-01T07:14:35.889Z,71.98
2022-12-01T07:17:02.688Z,72.50
2022-12-01T07:19:29.604Z,72.50
2022-12-01T07:21:56.404Z,72.76
2022-12-01T07:24:23.268Z,72.21
2022-12-01T07:26:49.965Z,72.43
2022-12-01T07:29:16.888Z,72.33
2022-12-01T07:31:43.944Z,72.37
2022-12-01T07:34:12.778Z,72.31
2022-12-01T07:36:39.493Z,72.29
2022-12-01T07:39:09.354Z,72.65
2022-12-01T07:41:36.350Z,72.74
2022-12-01T07:44:03.533Z,73.21
2022-12-01T07:46:30.330Z,72.59
2022-12-01T07:48:57.430Z,72.94
2022-12-01T07:51:25.358Z,73.02
2022-12-01T07:53:55.810Z,72.95
2022-12-01T07:56:23.015Z,72.65
2022-12-01T07:58:49.776Z,73.40
2022-12-01T08:01:19.641Z,72.90
2022-12-01T08:03:51.321Z,72.88
2022-12-01T08:06:19.110Z,73.16
2022-12-01T08:08:46.407Z,73.34
2022-12-01T08:11:24.242Z,73.59
2022-12-01T08:13:52.308Z,73.14
2022-12-01T08:16:20.937Z,73.08
2022-12-01T08:18:48.048Z,73.14
2022-12-01T08:21:17.327Z,73.43
2022-12-01T08:23:44.638Z,72.99
2022-12-01T08:26:14.270Z,73.45
2022-12-01T08:28:41.208Z,73.31
2022-12-01T08:31:19.557Z,73.91
2022-12-01T08:33:47.463Z,73.88
2022-12-01T08:36:15.291Z,73.50
2022-12-01T08:38:45.771Z,72.88
2022-12-01T08:41:13.424Z,73.01
2022-12-01T08:43:57.368Z,73.25
2022-12-01T08:46:26.603Z,73.48
2022-12-01T08:48:54.926Z,73.22
2022-12-01T08:51:21.625Z,73.53
2022-12-01T08:53:49.901Z,73.37
2022-12-01T08:56:41.234Z,73.67
2022-12-01T08:59:08.505Z,73.41
2022-12-01T09:01:35.981Z,73.46
2022-12-01T09:04:06.553Z,73.13
2022-12-01T09:06:35.491Z,72.95
2022-12-01T09:09:02.342Z,72.96
2022-12-01T09:11:29.031Z,73.06
2022-12-01T09:13:55.684Z,72.74
2022-12-01T09:16:23.608Z,72.64
2022-12-01T09:18:50.455Z,72.21
2022-12-01T09:21:20.206Z,72.63
2022-12-01T09:23:47.091Z,72.33
2022-12-01T09:26:18.335Z,72.31
2022-12-01T09:28:46.262Z,72.36
2022-12-01T09:31:15.020Z,72.21
2022-12-01T09:33:41.686Z,72.66
2022-12-01T09:36:08.984Z,72.61
2022-12-01T09:38:36.966Z,72.25
2022-12-01T09:41:11.883Z,72.02
2022-12-01T09:43:42.035Z,72.13
2022-12-01T09:46:14.409Z,72.46
2022-12-01T09:48:46.510Z,72.47
2022-12-01T09:51:18.176Z,72.21
2022-12-01T09:53:45.033Z,72.52
2022-12-01T09:56:23.185Z,71.78
2022-12-01T09:58:53.090Z,71.83
2022-12-01T10:01:30.412Z,72.30
2022-12-01T10:03:59.920Z,71.77
2022-12-01T10:06:36.584Z,71.69
2022-12-01T10:09:16.048Z,71.91
2022-12-01T10:11:44.665Z,72.25
2022-12-01T10:14:20.368Z,71.66
2022-12-01T10:16:50.369Z,71.14
2022-12-01T10:19:36.109Z,71.02
2022-12-01T10:22:20.719Z,71.70
2022-12-01T10:24:57.623Z,71.18
2022-12-01T10:27:43.340Z,71.31
2022-12-01T10:30:15.484Z,71.33
2022-12-01T10:32:54.209Z,71.23
2022-12-01T10:35:23.577Z,71.07
2022-12-01T10:37:55.674Z,71.63
2022-12-01T10:40:23.048Z,72.02
2022-12-01T10:42:50.887Z,71.69
2022-12-01T10:45:29.479Z,72.37
2022-12-01T10:48:11.480Z,71.10
2022-12-01T10:50:38.231Z,71.65
2022-12-01T10:53:05.159Z,71.74
2022-12-01T10:55:43.443Z,72.37
2022-12-01T10:58:15.684Z,73.13
2022-12-01T11:00:59.705Z,72.40
2022-12-01T11:03:33.546Z,72.21
2022-12-01T11:06:05.902Z,72.44
2022-12-01T11:38:13.348Z,72.50
2022-12-01T11:40:48.933Z,72.46
2022-12-01T11:43:27.152Z,72.50
2022-12-01T11:45:54.871Z,72.46
2022-12-01T11:48:28.604Z,72.78
2022-12-01T11:51:04.629Z,72.66
2022-12-01T11:53:34.765Z,72.62
2022-12-01T11:56:20.939Z,72.29
2022-12-01T11:58:48.782Z,72.77
2022-12-01T12:01:43.710Z,72.75
2022-12-01T12:04:29.291Z,72.75
2022-12-01T12:07:18.980Z,72.50
2022-12-01T12:09:49.700Z,72.91
2022-12-01T12:12:33.574Z,72.79
2022-12-01T12:15:33.653Z,73.34
2022-12-01T12:18:19.732Z,72.72
2022-12-01T12:21:01.376Z,72.50
2022-12-01T12:23:55.576Z,73.26
2022-12-01T12:26:30.963Z,73.18
2022-12-01T12:29:17.756Z,73.26
2022-12-01T12:31:46.980Z,72.84
2022-12-01T12:34:22.647Z,72.92
2022-12-01T12:37:09.566Z,72.94
2022-12-01T12:40:11.210Z,73.11
2022-12-01T12:43:04.116Z,73.33
2022-12-01T12:45:53.687Z,73.12
2022-12-01T12:51:43.664Z,73.86
2022-12-01T12:54:22.464Z,73.07
2022-12-01T12:56:52.980Z,73.20
2022-12-01T12:59:24.851Z,73.58
2022-12-01T13:02:04.117Z,73.69
2022-12-01T13:04:49.048Z,73.52
2022-12-01T13:07:15.821Z,73.98
2022-12-01T13:09:45.816Z,73.58
2022-12-01T13:12:17.163Z,73.42
2022-12-01T13:14:47.324Z,73.99
2022-12-01T13:17:21.294Z,73.89
2022-12-01T13:19:48.719Z,73.41
2022-12-01T13:22:17.760Z,73.76
2022-12-01T13:24:44.641Z,73.77
2022-12-01T13:27:11.380Z,73.70
2022-12-01T13:29:43.904Z,73.63
2022-12-01T13:32:33.315Z,74.08
2022-12-01T13:35:00.748Z,74.14
2022-12-01T13:37:31.017Z,75.39
2022-12-01T13:40:10.796Z,74.45
2022-12-01T13:42:39.695Z,74.63
2022-12-01T13:45:17.330Z,74.10
2022-12-01T13:47:46.913Z,74.04
2022-12-01T13:50:46.194Z,73.89
2022-12-01T13:53:18.871Z,73.36
2022-12-01T13:56:17.450Z,74.06
2022-12-01T13:58:47.479Z,73.73
2022-12-01T14:01:20.594Z,74.06
2022-12-01T14:03:56.957Z,74.30
2022-12-01T14:06:35.785Z,73.76
2022-12-01T14:09:27.534Z,74.30
2022-12-01T14:12:02.711Z,74.48
2022-12-01T14:14:35.685Z,74.41
2022-12-01T14:17:03.354Z,74.21
2022-12-01T14:19:47.019Z,73.96
2022-12-01T14:22:40.349Z,74.38
2022-12-01T14:25:22.568Z,74.83
2022-12-01T14:27:54.898Z,74.34
2022-12-01T14:30:45.178Z,74.56
2022-12-01T14:33:39.499Z,74.45
2022-12-01T14:36:20.630Z,74.54
2022-12-01T14:38:47.851Z,74.43
2022-12-01T14:41:28.185Z,74.62
2022-12-01T14:44:05.365Z,74.44
2022-12-01T14:46:44.141Z,74.43
2022-12-01T14:49:17.851Z,74.21
2022-12-01T14:51:47.045Z,73.95
2022-12-01T14:54:21.318Z,74.10
2022-12-01T14:56:51.593Z,74.37
2022-12-01T14:59:24.179Z,74.70
2022-12-01T15:01:53.450Z,74.75
2022-12-01T15:04:20.309Z,74.66
2022-12-01T15:06:47.305Z,74.52
2022-12-01T15:09:33.389Z,74.24
2022-12-01T15:12:06.883Z,74.61
2022-12-01T15:14:38.851Z,74.70
2022-12-01T15:17:06.920Z,75.04
2022-12-01T15:19:36.743Z,74.37
2022-12-01T15:22:12.796Z,74.61
2022-12-01T15:24:39.740Z,74.42
2022-12-01T15:27:23.972Z,74.69
2022-12-01T15:29:50.944Z,74.27
2022-12-01T15:32:21.161Z,74.34
2022-12-01T15:34:51.149Z,74.42
2022-12-01T15:37:19.893Z,74.61
2022-12-01T15:39:52.789Z,74.58
2022-12-01T15:42:30.165Z,74.60
2022-12-01T15:45:02.664Z,74.88
2022-12-01T15:47:44.371Z,74.59
2022-12-01T15:50:45.966Z,74.66
2022-12-01T15:53:29.415Z,74.24
2022-12-01T15:55:59.210Z,74.37
2022-12-01T15:58:31.740Z,74.53
2022-12-01T16:01:05.007Z,74.68
2022-12-01T16:03:33.795Z,74.93
2022-12-01T16:06:00.573Z,74.78
2022-12-01T16:08:27.921Z,74.82
2022-12-01T16:11:14.481Z,75.28
2022-12-01T16:13:57.055Z,75.67
2022-12-01T16:16:26.647Z,75.94
2022-12-01T16:18:55.624Z,76.09
2022-12-01T16:21:23.986Z,75.93
2022-12-01T16:24:04.976Z,76.38
2022-12-01T16:26:35.241Z,76.31
2022-12-01T16:29:02.201Z,76.14
2022-12-01T16:31:29.924Z,76.19
2022-12-01T16:34:06.570Z,76.22
2022-12-01T16:36:40.820Z,76.42
2022-12-01T16:39:08.017Z,75.97
2022-12-01T16:41:38.440Z,76.16
2022-12-01T16:44:27.494Z,76.01
2022-12-01T16:46:52.861Z,76.01
2022-12-01T16:49:19.623Z,76.04
2022-12-01T16:52:11.156Z,76.19
2022-12-01T16:54:33.170Z,75.79
2022-12-01T16:56:59.980Z,75.72
2022-12-01T16:59:26.906Z,75.72
2022-12-01T17:01:53.868Z,75.96
2022-12-01T17:04:20.718Z,75.69
2022-12-01T17:06:47.479Z,75.92
2022-12-01T17:09:14.358Z,75.71
2022-12-01T17:11:41.326Z,75.85
2022-12-01T17:14:08.061Z,75.88
2022-12-01T17:16:36.016Z,75.92
2022-12-01T17:19:02.998Z,75.81
2022-12-01T17:21:30.356Z,75.92
2022-12-01T17:23:57.187Z,76.00
2022-12-01T17:26:24.107Z,76.14
2022-12-01T17:28:54.010Z,76.78
2022-12-01T17:31:20.932Z,77.43
2022-12-01T17:33:48.042Z,77.75
2022-12-01T17:36:15.588Z,78.18
2022-12-01T17:38:45.853Z,78.68
2022-12-01T18:08:16.306Z,81.32
2022-12-01T18:10:43.185Z,80.98
2022-12-01T18:13:10.171Z,80.64
2022-12-01T18:15:39.342Z,79.65
2022-12-01T18:18:06.158Z,79.15
2022-12-01T18:20:32.881Z,79.13
2022-12-01T18:22:59.643Z,79.04
2022-12-01T18:25:26.336Z,79.42
2022-12-01T18:27:58.224Z,78.96
2022-12-01T18:30:25.006Z,78.87
2022-12-01T18:32:51.739Z,78.23
2022-12-01T18:35:18.459Z,78.12
2022-12-01T18:37:45.167Z,77.68
2022-12-01T18:40:12.653Z,78.19
2022-12-01T18:42:39.499Z,78.29
2022-12-01T18:45:06.579Z,78.75
2022-12-01T18:47:33.321Z,79.28
2022-12-01T18:50:00.469Z,80.08
2022-12-01T18:52:27.152Z,80.53
2022-12-01T18:54:54.082Z,80.62
2022-12-01T18:57:20.981Z,80.79
2022-12-01T18:59:47.717Z,79.55
2022-12-01T19:02:14.520Z,79.32
2022-12-01T19:04:41.393Z,79.44
2022-12-01T19:07:08.138Z,80.18
2022-12-01T19:09:34.946Z,79.78
2022-12-01T19:12:01.783Z,79.10
2022-12-01T19:14:29.175Z,78.88
2022-12-01T19:16:56.392Z,78.68
2022-12-01T19:19:23.159Z,78.66
2022-12-01T19:21:50.350Z,78.69
2022-12-01T19:24:17.232Z,78.13
2022-12-01T19:26:44.010Z,77.99
2022-12-01T19:29:10.732Z,77.97
2022-12-01T19:31:37.854Z,77.74
2022-12-01T19:34:04.766Z,78.03
2022-12-01T19:36:31.718Z,78.00
2022-12-01T19:39:00.468Z,77.97
2022-12-01T19:41:28.267Z,78.00
2022-12-01T19:43:55.292Z,77.65
2022-12-01T19:46:24.230Z,77.85
2022-12-01T19:49:00.392Z,77.96
2022-12-01T19:51:37.091Z,78.30
2022-12-01T19:54:05.217Z,78.48
2022-12-01T19:56:32.357Z,78.31
2022-12-01T19:58:59.458Z,78.15
2022-12-01T20:01:27.031Z,77.92
2022-12-01T20:03:54.806Z,77.91
2022-12-01T20:06:24.277Z,77.89
2022-12-01T20:08:51.669Z,77.82
2022-12-01T20:11:18.633Z,77.76
2022-12-01T20:13:46.887Z,77.97
2022-12-01T20:16:16.123Z,77.90
2022-12-01T20:18:43.137Z,77.79
2022-12-01T20:21:19.199Z,78.23
2022-12-01T20:23:58.758Z,78.55
2022-12-01T20:26:30.801Z,78.34
2022-12-01T20:29:07.378Z,78.59
2022-12-01T20:31:34.750Z,78.63
2022-12-01T20:34:04.727Z,78.49
2022-12-01T20:36:31.863Z,78.36
2022-12-01T20:38:58.705Z,78.34
2022-12-01T20:41:25.645Z,78.63
2022-12-01T20:43:52.460Z,78.54
2022-12-01T20:46:19.255Z,78.69
2022-12-01T20:48:46.011Z,78.76
2022-12-01T20:51:14.170Z,78.41
2022-12-01T20:53:54.494Z,78.25
2022-12-01T20:56:28.185Z,78.12
2022-12-01T20:58:55.075Z,77.99
2022-12-01T21:01:25.144Z,78.54
2022-12-01T21:03:52.637Z,78.53
2022-12-01T21:06:20.464Z,78.80
2022-12-01T21:08:48.630Z,78.28
2022-12-01T21:11:40.416Z,78.38
2022-12-01T21:14:11.319Z,78.19
2022-12-01T21:16:38.990Z,78.04
2022-12-01T21:19:13.352Z,78.11
2022-12-01T21:21:41.045Z,78.01
2022-12-01T21:24:07.741Z,78.13
2022-12-01T21:26:38.495Z,77.81
2022-12-01T21:29:24.924Z,77.86
2022-12-01T21:31:54.454Z,77.82
2022-12-01T21:34:23.937Z,77.95
2022-12-01T21:36:53.105Z,78.14
2022-12-01T21:39:21.948Z,77.66
2022-12-01T21:41:50.428Z,77.77
2022-12-01T21:44:20.443Z,77.76
2022-12-01T21:46:49.371Z,77.74
2022-12-01T21:49:33.674Z,77.88
2022-12-01T21:52:00.980Z,78.13
2022-12-01T21:54:28.737Z,77.86
2022-12-01T21:56:57.782Z,77.75
2022-12-01T21:59:24.654Z,77.83
2022-12-01T22:01:59.386Z,77.76
2022-12-01T22:04:30.149Z,77.83
2022-12-01T22:06:58.008Z,77.85
2022-12-01T22:09:35.194Z,77.31
2022-12-01T22:12:28.302Z,77.68
2022-12-01T22:15:00.319Z,77.58
2022-12-01T22:17:27.841Z,77.68
2022-12-01T22:19:59.778Z,77.81
2022-12-01T22:22:28.570Z,78.13
2022-12-01T22:25:13.557Z,77.96
2022-12-01T22:27:40.966Z,77.85
2022-12-01T22:30:07.804Z,77.82
2022-12-01T22:32:55.866Z,77.69
2022-12-01T22:35:29.795Z,78.15
2022-12-01T22:38:33.028Z,77.78
2022-12-01T22:41:17.058Z,78.02
2022-12-01T22:43:44.924Z,77.98
2022-12-01T22:46:19.012Z,77.81
2022-12-01T22:48:48.111Z,77.90
2022-12-01T22:51:26.903Z,77.59
2022-12-01T22:54:01.658Z,77.77
2022-12-01T22:56:49.702Z,77.46
2022-12-01T22:59:20.240Z,77.63
2022-12-01T23:01:52.713Z,77.67
2022-12-01T23:04:38.794Z,77.37
2022-12-01T23:07:31.206Z,77.23
2022-12-01T23:10:05.078Z,77.47
2022-12-01T23:12:33.547Z,77.16
2022-12-01T23:15:11.557Z,77.30
2022-12-01T23:17:38.953Z,77.36
2022-12-01T23:20:20.818Z,77.18
2022-12-01T23:22:47.922Z,77.26
2022-12-01T23:25:19.525Z,77.30
2022-12-01T23:27:48.310Z,77.08
2022-12-01T23:30:16.483Z,77.18
2022-12-01T23:32:44.111Z,77.30
2022-12-01T23:35:16.170Z,77.17
2022-12-01T23:37:44.314Z,77.21
2022-12-01T23:40:36.475Z,77.09
2022-12-01T23:43:11.859Z,77.07
2022-12-01T23:45:38.935Z,77.21
2022-12-01T23:48:11.229Z,77.03
2022-12-01T23:50:38.126Z,77.07
2022-12-01T23:53:04.837Z,76.92
2022-12-01T23:55:31.877Z,77.00
2022-12-01T23:57:59.209Z,76.91
